Time;durP1;ratioP1;P1;durP2;ratioP2;P2;SDS_P1;SDS_P2;PMS_P1;PMS_P2;Temp;Humidity;BMP_temperature;BMP_pressure;BME280_temperature;BME280_humidity;BME280_pressure;Samples;Min_cycle;Max_cycle;Signal;HPM_P1;HPM_P2
2022/12/15 00:41:03;;;;;;;21.42;11.68;;;1.50;81.90;;;;;;5072112;28;20124;-74
2022/12/15 00:43:33;;;;;;;25.15;12.75;;;1.40;81.90;;;;;;5072825;28;20039;-74
2022/12/15 00:48:45;;;;;;;25.15;12.70;;;1.30;82.30;;;;;;5072985;28;20036;-74
2022/12/15 00:51:11;;;;;;;24.55;12.80;;;1.30;82.40;;;;;;5071653;28;20041;-74
2022/12/15 01:21:04;;;;;;;24.35;12.10;;;1.40;82.50;;;;;;5076227;28;20039;-74
2022/12/15 01:23:31;;;;;;;25.52;12.90;;;1.40;82.40;;;;;;5075830;28;20021;-74
2022/12/15 01:25:57;;;;;;;19.88;12.60;;;1.50;82.50;;;;;;5074710;28;20056;-76
2022/12/15 01:28:23;;;;;;;22.70;13.25;;;1.50;82.50;;;;;;5075555;28;20060;-76
2022/12/15 01:30:50;;;;;;;24.85;13.15;;;1.50;82.30;;;;;;5075771;28;20036;-76
2022/12/15 01:33:17;;;;;;;20.90;12.30;;;1.50;82.30;;;;;;5074554;28;20499;-76
2022/12/15 01:35:43;;;;;;;21.83;12.88;;;1.40;82.40;;;;;;5075686;28;20020;-76
2022/12/15 01:38:09;;;;;;;25.88;12.77;;;1.30;82.50;;;;;;5076013;28;20086;-73
2022/12/15 01:40:44;;;;;;;23.75;12.32;;;1.30;82.80;;;;;;5074619;28;20036;-74
2022/12/15 01:43:19;;;;;;;25.60;13.38;;;1.20;82.60;;;;;;5076132;28;20032;-75
2022/12/15 01:45:47;;;;;;;26.23;13.15;;;1.10;82.80;;;;;;5074496;28;20103;-74
2022/12/15 01:48:37;;;;;;;22.83;12.77;;;1.10;83.10;;;;;;5075328;28;20290;-74
2022/12/15 01:51:24;;;;;;;25.80;13.82;;;1.10;83.40;;;;;;5056151;28;20076;-75
2022/12/15 01:54:07;;;;;;;25.85;14.80;;;1.00;83.50;;;;;;5075648;28;20032;-77
2022/12/15 01:56:39;;;;;;;25.95;13.38;;;0.90;83.60;;;;;;5075026;28;20027;-76
2022/12/15 01:59:08;;;;;;;25.38;12.38;;;0.80;83.90;;;;;;5076659;28;20036;-76
2022/12/15 02:01:33;;;;;;;24.27;12.90;;;0.80;84.20;;;;;;5075259;28;20040;-76
2022/12/15 02:04:00;;;;;;;24.80;12.15;;;0.80;84.20;;;;;;5056533;28;20532;-74
2022/12/15 02:06:27;;;;;;;26.23;13.50;;;0.80;84.30;;;;;;5074999;28;20032;-74
2022/12/15 02:08:56;;;;;;;25.85;12.80;;;0.90;84.30;;;;;;5075302;28;20066;-74
2022/12/15 02:11:36;;;;;;;23.50;13.15;;;0.90;84.20;;;;;;5074643;28;20534;-74
2022/12/15 02:14:07;;;;;;;21.45;12.27;;;1.00;84.20;;;;;;5075209;28;20034;-74
2022/12/15 02:16:38;;;;;;;28.40;13.85;;;1.00;84.10;;;;;;5074617;28;20049;-75
2022/12/15 02:19:31;;;;;;;27.05;12.98;;;1.00;83.90;;;;;;5073342;28;20032;-77
2022/12/15 02:22:25;;;;;;;21.73;12.45;;;0.90;84.50;;;;;;5075099;28;20045;-77
2022/12/15 02:25:30;;;;;;;25.13;13.23;;;0.80;84.10;;;;;;5074869;28;20056;-77
2022/12/15 02:28:35;;;;;;;25.40;12.27;;;0.80;84.00;;;;;;5074760;28;20121;-77
2022/12/15 02:34:04;;;;;;;22.65;11.10;;;0.90;84.30;;;;;;5074534;28;20082;-77
2022/12/15 02:36:38;;;;;;;23.40;11.63;;;0.90;84.20;;;;;;5073388;28;20029;-78
2022/12/15 02:39:04;;;;;;;25.02;12.00;;;1.00;84.20;;;;;;5073339;28;20040;-77
2022/12/15 02:41:35;;;;;;;23.63;12.23;;;1.00;84.20;;;;;;5074485;28;20029;-77
2022/12/15 02:44:18;;;;;;;20.70;12.57;;;1.00;83.90;;;;;;5073327;28;20052;-76
2022/12/15 02:46:58;;;;;;;26.27;12.77;;;1.00;83.90;;;;;;5073918;28;20028;-74
2022/12/15 02:49:24;;;;;;;23.50;11.65;;;0.90;83.80;;;;;;5073247;28;20028;-74
2022/12/15 02:52:18;;;;;;;23.27;12.23;;;0.80;83.70;;;;;;5073042;28;20370;-74
2022/12/15 02:54:43;;;;;;;24.17;12.15;;;0.70;84.00;;;;;;5073890;28;20103;-73
2022/12/15 02:57:23;;;;;;;24.00;12.50;;;0.60;84.00;;;;;;5073600;28;20059;-73
2022/12/15 03:00:00;;;;;;;25.63;11.75;;;0.50;84.30;;;;;;5073052;28;20461;-74
2022/12/15 03:02:30;;;;;;;24.08;13.00;;;0.50;84.50;;;;;;5072857;28;20381;-73
2022/12/15 03:04:57;;;;;;;20.88;11.13;;;0.50;84.70;;;;;;5074483;28;20032;-74
2022/12/15 03:07:26;;;;;;;21.52;12.23;;;0.50;84.90;;;;;;5072989;28;20032;-74
2022/12/15 03:09:54;;;;;;;24.65;12.88;;;0.40;85.00;;;;;;5072491;28;20489;-73
2022/12/15 03:12:20;;;;;;;22.17;12.07;;;0.30;85.20;;;;;;5073969;28;20070;-73
2022/12/15 03:14:46;;;;;;;20.60;11.48;;;0.20;85.20;;;;;;5073451;28;20025;-74
2022/12/15 03:17:12;;;;;;;21.63;12.82;;;0.30;85.30;;;;;;5073657;28;20048;-73
2022/12/15 03:19:37;;;;;;;22.58;11.68;;;0.20;85.20;;;;;;5072683;28;20043;-74
2022/12/15 03:22:03;;;;;;;21.35;11.27;;;0.30;85.50;;;;;;5073610;28;20040;-74
2022/12/15 03:24:29;;;;;;;23.80;12.80;;;0.20;85.20;;;;;;5072120;28;20480;-74
2022/12/15 03:26:54;;;;;;;21.67;11.18;;;0.20;85.20;;;;;;5072233;28;20052;-74
2022/12/15 03:29:20;;;;;;;21.90;11.25;;;0.20;85.20;;;;;;5072423;28;20037;-74
2022/12/15 03:31:46;;;;;;;21.48;11.18;;;0.20;85.00;;;;;;5055509;28;20037;-74
2022/12/15 03:34:11;;;;;;;23.50;12.05;;;0.20;85.00;;;;;;5072367;28;20028;-74
2022/12/15 03:36:37;;;;;;;17.80;10.57;;;0.20;85.10;;;;;;5072139;28;20031;-74
2022/12/15 03:39:03;;;;;;;24.25;11.20;;;0.20;85.10;;;;;;5073632;28;20021;-74
2022/12/15 03:41:29;;;;;;;21.58;11.80;;;0.20;85.00;;;;;;5071890;28;20492;-74
2022/12/15 03:43:55;;;;;;;18.98;10.32;;;0.20;85.00;;;;;;5072249;28;20025;-74
2022/12/15 03:46:20;;;;;;;20.67;11.00;;;0.30;85.10;;;;;;5072517;28;20035;-74
2022/12/15 03:48:46;;;;;;;20.73;11.55;;;0.30;85.00;;;;;;5038914;28;20461;-74
2022/12/15 03:51:11;;;;;;;21.42;11.32;;;0.30;85.10;;;;;;5072019;28;20032;-73
2022/12/15 03:53:37;;;;;;;22.00;11.35;;;0.20;85.00;;;;;;5073636;28;20040;-73
2022/12/15 03:56:03;;;;;;;22.92;11.55;;;0.20;85.10;;;;;;5072634;28;20066;-74
2022/12/15 03:58:29;;;;;;;25.08;11.52;;;0.30;85.10;;;;;;5071968;28;20036;-74
2022/12/15 04:00:55;;;;;;;21.20;11.05;;;0.20;85.30;;;;;;5055736;28;20392;-74
2022/12/15 04:03:21;;;;;;;17.48;10.15;;;0.20;85.50;;;;;;5071960;28;20039;-74
2022/12/15 04:05:46;;;;;;;27.80;11.68;;;0.30;85.70;;;;;;5073212;28;20025;-73
2022/12/15 04:08:12;;;;;;;22.27;11.30;;;0.30;85.60;;;;;;5071944;28;20119;-73
2022/12/15 04:10:38;;;;;;;21.92;11.73;;;0.40;85.60;;;;;;5071947;28;20050;-73
2022/12/15 04:13:06;;;;;;;22.80;12.13;;;0.30;85.90;;;;;;5073057;28;20032;-73
2022/12/15 04:15:33;;;;;;;23.38;11.63;;;0.20;85.70;;;;;;5072937;28;20112;-73
2022/12/15 04:18:00;;;;;;;29.60;11.02;;;0.20;85.90;;;;;;5071856;28;20040;-73
2022/12/15 04:20:26;;;;;;;22.55;11.18;;;0.20;86.10;;;;;;5071919;28;20039;-74
2022/12/15 04:22:51;;;;;;;19.35;10.55;;;0.30;86.30;;;;;;5072925;28;20037;-74
2022/12/15 05:31:51;;;;;;;21.42;11.40;;;-0.10;87.90;;;;;;5075794;28;20044;-75
2022/12/15 05:34:28;;;;;;;22.20;11.45;;;-0.10;87.90;;;;;;5074453;28;20033;-75
2022/12/15 05:36:55;;;;;;;24.23;12.60;;;-0.10;87.90;;;;;;5064497;28;20029;-79
2022/12/15 05:39:22;;;;;;;22.25;12.32;;;0.00;87.90;;;;;;5054549;28;20035;-81
2022/12/15 05:41:48;;;;;;;26.25;13.40;;;0.00;87.80;;;;;;5057500;28;20469;-80
2022/12/15 05:44:14;;;;;;;23.92;12.13;;;0.00;87.70;;;;;;5087921;28;20036;-85
2022/12/15 05:46:39;;;;;;;21.52;11.93;;;0.00;87.70;;;;;;5061001;28;20032;-83
2022/12/15 05:49:06;;;;;;;19.75;10.93;;;0.00;87.70;;;;;;5075506;28;20481;-81
2022/12/15 05:51:33;;;;;;;21.70;12.15;;;0.10;87.70;;;;;;5056935;28;20036;-85
2022/12/15 05:53:58;;;;;;;22.92;12.10;;;0.10;87.60;;;;;;5073043;28;20104;-84
2022/12/15 05:56:26;;;;;;;23.25;11.95;;;0.10;87.60;;;;;;5085033;28;20052;-85
2022/12/15 05:58:52;;;;;;;28.23;13.57;;;0.10;87.50;;;;;;5075002;28;20104;-83
2022/12/15 06:01:18;;;;;;;23.50;12.50;;;0.10;87.40;;;;;;5075387;28;20063;-85
2022/12/15 06:03:44;;;;;;;21.48;11.20;;;0.10;87.30;;;;;;5075259;28;20059;-84
2022/12/15 06:06:12;;;;;;;21.77;11.77;;;0.20;87.40;;;;;;5074219;28;20027;-78
2022/12/15 06:08:40;;;;;;;25.30;13.13;;;0.30;87.10;;;;;;5074958;28;20470;-82
2022/12/15 06:11:06;;;;;;;22.95;11.88;;;0.20;86.80;;;;;;5068784;28;20065;-82
2022/12/15 06:13:35;;;;;;;25.75;13.00;;;0.20;86.70;;;;;;5067336;28;20064;-83
2022/12/15 06:16:11;;;;;;;20.20;11.00;;;0.30;86.50;;;;;;5073369;28;20020;-76
2022/12/15 06:18:40;;;;;;;20.67;10.43;;;0.30;88.70;;;;;;5076642;28;20131;-82
2022/12/15 06:21:11;;;;;;;18.17;9.48;;;0.40;90.90;;;;;;5075441;28;20040;-77
2022/12/15 06:23:37;;;;;;;20.08;10.82;;;0.50;91.90;;;;;;5075114;28;20028;-78
2022/12/15 06:26:14;;;;;;;19.67;10.45;;;0.70;92.60;;;;;;5075783;28;20021;-78
2022/12/15 06:28:41;;;;;;;24.38;13.35;;;0.90;92.60;;;;;;5080268;28;20016;-80
2022/12/15 06:31:08;;;;;;;25.67;13.18;;;0.90;91.50;;;;;;5076071;28;20064;-80
2022/12/15 06:33:35;;;;;;;24.92;13.25;;;0.90;91.10;;;;;;5073618;28;20588;-80
2022/12/15 06:36:06;;;;;;;27.23;13.13;;;0.90;90.30;;;;;;5054778;28;20097;-82
2022/12/15 06:38:32;;;;;;;21.58;12.05;;;0.90;90.30;;;;;;5065616;28;20040;-81
2022/12/15 06:41:00;;;;;;;20.88;11.40;;;0.80;90.20;;;;;;5071776;28;20484;-79
2022/12/15 06:43:27;;;;;;;24.52;13.10;;;0.90;91.00;;;;;;5072772;28;20036;-80
2022/12/15 06:45:53;;;;;;;19.00;11.88;;;1.00;90.90;;;;;;5070992;28;20021;-80
2022/12/15 06:48:19;;;;;;;20.42;11.23;;;1.00;91.10;;;;;;5069600;28;20083;-77
2022/12/15 06:50:45;;;;;;;21.92;12.57;;;1.20;91.30;;;;;;5070596;28;20028;-74
2022/12/15 06:53:12;;;;;;;26.05;13.95;;;1.30;91.10;;;;;;5071719;28;20020;-74
2022/12/15 06:55:38;;;;;;;23.80;12.50;;;1.40;90.50;;;;;;5055222;28;20024;-74
2022/12/15 06:58:04;;;;;;;23.45;12.82;;;1.40;90.20;;;;;;5069072;28;20149;-75
2022/12/15 07:00:29;;;;;;;21.27;12.90;;;1.50;90.20;;;;;;5068863;28;20029;-75
2022/12/15 07:02:55;;;;;;;21.58;13.10;;;1.60;90.10;;;;;;5070287;28;20025;-76
2022/12/15 07:05:20;;;;;;;20.00;11.05;;;1.60;89.90;;;;;;5069985;28;20434;-76
2022/12/15 07:07:47;;;;;;;25.48;13.10;;;1.70;90.00;;;;;;5055251;28;20031;-75
2022/12/15 07:10:12;;;;;;;23.05;12.90;;;1.90;90.00;;;;;;5052352;28;20036;-75
2022/12/15 07:12:38;;;;;;;24.48;13.70;;;1.90;89.30;;;;;;5058531;28;20469;-75
2022/12/15 07:15:04;;;;;;;23.08;13.55;;;2.00;88.50;;;;;;5054472;28;20033;-76
2022/12/15 07:17:30;;;;;;;23.35;12.82;;;2.00;87.20;;;;;;5052125;28;20080;-77
2022/12/15 07:19:55;;;;;;;24.33;13.32;;;2.00;87.30;;;;;;5049415;28;20068;-78
2022/12/15 07:22:21;;;;;;;22.77;13.00;;;2.00;86.60;;;;;;5051830;28;20409;-78
2022/12/15 07:24:47;;;;;;;20.10;11.13;;;2.00;86.80;;;;;;5047023;28;20024;-77
2022/12/15 07:27:13;;;;;;;20.67;11.35;;;2.10;87.40;;;;;;5053039;28;20032;-78
2022/12/15 07:29:39;;;;;;;18.60;10.77;;;2.10;87.70;;;;;;5052697;28;20013;-76
2022/12/15 07:32:05;;;;;;;27.13;12.40;;;2.20;87.50;;;;;;5056488;28;20500;-77
2022/12/15 07:34:31;;;;;;;25.65;14.23;;;2.20;87.00;;;;;;5051882;28;20410;-77
2022/12/15 07:36:56;;;;;;;24.35;12.80;;;2.20;86.30;;;;;;5049291;28;20028;-77
2022/12/15 07:39:26;;;;;;;24.42;13.23;;;2.00;85.90;;;;;;5052058;28;20064;-77
2022/12/15 07:41:51;;;;;;;22.42;13.50;;;2.00;86.90;;;;;;5052067;28;20025;-77
2022/12/15 07:44:17;;;;;;;24.80;12.93;;;2.00;86.30;;;;;;5052040;28;20029;-77
2022/12/15 07:46:45;;;;;;;29.75;13.90;;;1.90;86.10;;;;;;5057316;28;20469;-77
2022/12/15 07:49:12;;;;;;;25.67;14.23;;;1.90;86.00;;;;;;5073247;28;20028;-77
2022/12/15 07:51:37;;;;;;;25.10;14.55;;;1.80;85.70;;;;;;5070890;28;20385;-77
2022/12/15 07:54:03;;;;;;;25.10;14.90;;;1.70;85.20;;;;;;5071863;28;20036;-77
2022/12/15 07:56:29;;;;;;;25.10;13.88;;;1.60;85.10;;;;;;5068886;28;20033;-77
2022/12/15 07:58:54;;;;;;;29.30;14.32;;;1.60;85.60;;;;;;5050996;28;20036;-76
2022/12/15 08:01:20;;;;;;;26.58;13.65;;;1.60;86.20;;;;;;5081009;28;20032;-76
2022/12/15 08:03:47;;;;;;;24.55;13.27;;;1.60;86.10;;;;;;5055753;28;20389;-77
2022/12/15 08:06:14;;;;;;;28.98;15.13;;;1.70;86.40;;;;;;5067977;28;20028;-77
2022/12/15 08:08:42;;;;;;;23.63;14.13;;;1.60;85.50;;;;;;5075429;28;20028;-77
2022/12/15 08:11:10;;;;;;;25.98;14.68;;;1.60;85.50;;;;;;5076924;28;20028;-77
2022/12/15 08:13:36;;;;;;;26.15;14.25;;;1.60;86.30;;;;;;5074904;28;20432;-77
2022/12/15 08:16:02;;;;;;;26.92;14.98;;;1.60;86.30;;;;;;5076900;28;20020;-77
2022/12/15 08:18:28;;;;;;;26.75;15.05;;;1.60;86.20;;;;;;5075404;28;20131;-77
2022/12/15 08:20:54;;;;;;;25.42;14.25;;;1.60;86.40;;;;;;5076543;28;20058;-77
2022/12/15 08:23:20;;;;;;;29.77;15.90;;;1.70;86.70;;;;;;5075662;28;20024;-77
2022/12/15 08:25:46;;;;;;;28.60;15.45;;;1.70;86.40;;;;;;5075374;28;20027;-77
2022/12/15 08:28:12;;;;;;;28.38;16.00;;;1.80;86.40;;;;;;5071910;28;20044;-77
2022/12/15 08:30:37;;;;;;;27.30;14.15;;;1.80;86.10;;;;;;5070782;28;20071;-77
2022/12/15 08:33:03;;;;;;;30.63;16.08;;;1.80;85.90;;;;;;5076700;28;20031;-76
2022/12/15 08:35:29;;;;;;;28.50;15.25;;;1.80;86.40;;;;;;5072307;28;20032;-77
2022/12/15 08:37:55;;;;;;;27.23;14.73;;;1.90;86.50;;;;;;5076155;28;20045;-77
2022/12/15 08:40:20;;;;;;;29.60;15.20;;;2.00;86.20;;;;;;5075228;28;20028;-77
2022/12/15 08:42:46;;;;;;;26.98;15.07;;;2.00;85.70;;;;;;5075899;28;20078;-77
2022/12/15 08:45:12;;;;;;;31.63;16.92;;;2.10;85.60;;;;;;5055135;28;20429;-77
2022/12/15 08:47:38;;;;;;;29.83;17.10;;;2.10;85.00;;;;;;5068196;28;20021;-77
2022/12/15 08:50:06;;;;;;;29.77;16.08;;;2.00;85.10;;;;;;5074823;28;20419;-78
2022/12/15 08:52:33;;;;;;;33.50;17.05;;;1.90;84.70;;;;;;5076105;28;20019;-77
2022/12/15 08:54:58;;;;;;;29.20;15.88;;;1.80;85.00;;;;;;5075369;28;20036;-69
2022/12/15 08:57:24;;;;;;;30.88;17.02;;;1.80;85.10;;;;;;5057480;28;20544;-70
2022/12/15 08:59:50;;;;;;;28.08;16.63;;;1.80;85.00;;;;;;5060175;28;20037;-71
2022/12/15 09:02:15;;;;;;;28.48;16.65;;;1.70;85.10;;;;;;5054336;28;20033;-70
2022/12/15 09:04:42;;;;;;;29.85;16.40;;;1.80;85.40;;;;;;5054809;28;20153;-70
2022/12/15 09:07:08;;;;;;;28.80;16.35;;;1.80;85.20;;;;;;5056115;28;20029;-70
2022/12/15 09:09:34;;;;;;;26.70;16.90;;;1.80;85.40;;;;;;5054450;28;20040;-70
2022/12/15 09:11:59;;;;;;;28.85;16.30;;;1.80;85.70;;;;;;5055549;28;20055;-70
2022/12/15 09:14:25;;;;;;;31.35;16.95;;;1.90;85.90;;;;;;5053335;28;20071;-70
2022/12/15 09:16:51;;;;;;;32.47;18.80;;;2.00;85.30;;;;;;5054531;28;20025;-70
2022/12/15 09:19:16;;;;;;;28.38;17.58;;;2.00;85.50;;;;;;5079140;28;20071;-73
2022/12/15 09:21:43;;;;;;;26.83;16.42;;;2.00;85.30;;;;;;5076146;28;20354;-77
2022/12/15 09:24:11;;;;;;;35.45;17.77;;;2.00;85.50;;;;;;5075745;28;20042;-75
2022/12/15 09:26:37;;;;;;;34.28;19.00;;;2.00;85.40;;;;;;5075390;28;20020;-77
2022/12/15 09:29:03;;;;;;;29.55;17.55;;;1.90;85.30;;;;;;5074630;28;20024;-80
2022/12/15 09:31:31;;;;;;;33.25;18.00;;;1.80;85.50;;;;;;5078339;28;20488;-82
2022/12/15 09:33:58;;;;;;;31.40;17.05;;;1.80;85.70;;;;;;5077100;28;20027;-75
2022/12/15 09:36:25;;;;;;;34.75;17.85;;;1.70;85.70;;;;;;5051729;28;20032;-78
2022/12/15 09:38:51;;;;;;;33.20;18.73;;;1.80;86.20;;;;;;5071743;28;20475;-78
2022/12/15 09:41:22;;;;;;;32.42;18.63;;;1.80;86.20;;;;;;5056788;28;20025;-80
2022/12/15 09:43:59;;;;;;;33.22;19.58;;;1.80;86.50;;;;;;5058381;28;20115;-78
2022/12/15 09:46:50;;;;;;;29.80;17.13;;;1.80;86.80;;;;;;5072247;28;20016;-79
2022/12/15 09:49:38;;;;;;;33.63;18.13;;;1.90;86.80;;;;;;5074877;28;20038;-78
2022/12/15 09:52:25;;;;;;;36.08;19.15;;;2.00;86.90;;;;;;5071903;28;20037;-79
2022/12/15 09:54:51;;;;;;;35.95;19.83;;;2.10;86.60;;;;;;5056119;28;20032;-79
2022/12/15 09:57:41;;;;;;;38.55;21.70;;;2.10;86.30;;;;;;5073556;28;20090;-78
2022/12/15 10:00:36;;;;;;;32.42;19.88;;;2.10;86.40;;;;;;5073258;28;20013;-78
2022/12/15 10:03:08;;;;;;;38.78;20.75;;;2.10;86.60;;;;;;5072145;28;20036;-74
2022/12/15 10:06:01;;;;;;;36.28;20.45;;;2.10;86.90;;;;;;5073717;28;20017;-79
2022/12/15 10:08:31;;;;;;;34.20;19.60;;;2.20;87.00;;;;;;5072876;28;20017;-78
2022/12/15 10:11:00;;;;;;;36.90;19.60;;;2.20;87.00;;;;;;5074492;28;20033;-77
2022/12/15 10:13:31;;;;;;;34.92;20.17;;;2.30;87.10;;;;;;5073309;28;20012;-78
2022/12/15 10:16:35;;;;;;;32.53;19.30;;;2.40;87.20;;;;;;5075164;28;20033;-78
2022/12/15 10:19:14;;;;;;;37.25;20.48;;;2.40;87.00;;;;;;5021097;28;20047;-81
2022/12/15 10:21:41;;;;;;;36.72;20.90;;;2.70;94.50;;;;;;5055063;28;20025;-75
2022/12/15 10:24:20;;;;;;;36.58;20.83;;;2.80;91.90;;;;;;5053294;28;20457;-75
2022/12/15 10:27:12;;;;;;;34.28;19.85;;;2.80;90.80;;;;;;5054923;28;20016;-78
2022/12/15 10:29:44;;;;;;;36.70;20.42;;;2.80;90.40;;;;;;5054983;28;20025;-79
2022/12/15 10:32:30;;;;;;;34.72;21.25;;;2.80;90.00;;;;;;5053659;28;20355;-78
2022/12/15 10:34:56;;;;;;;36.63;20.38;;;2.80;89.10;;;;;;5043979;28;20033;-77
2022/12/15 10:37:23;;;;;;;35.63;19.77;;;2.80;88.90;;;;;;5054827;28;20147;-76
2022/12/15 10:39:50;;;;;;;35.30;20.05;;;2.80;89.10;;;;;;5054380;28;20110;-78
2022/12/15 10:42:24;;;;;;;35.70;20.35;;;2.80;88.90;;;;;;5055398;28;20065;-79
2022/12/15 10:44:53;;;;;;;34.22;19.25;;;2.80;89.10;;;;;;5055421;28;20032;-78
2022/12/15 10:47:28;;;;;;;35.72;20.48;;;2.90;89.10;;;;;;5054241;28;20028;-78
2022/12/15 10:50:14;;;;;;;36.85;22.17;;;2.90;89.00;;;;;;5053603;28;20032;-77
2022/12/15 10:52:40;;;;;;;37.80;21.05;;;2.90;89.20;;;;;;5055040;28;20029;-78
2022/12/15 10:55:38;;;;;;;31.75;19.05;;;2.90;89.20;;;;;;5053063;28;20457;-75
2022/12/15 10:58:16;;;;;;;36.33;21.20;;;2.80;89.30;;;;;;5052557;28;20013;-74
2022/12/15 11:00:42;;;;;;;32.33;19.88;;;2.80;89.80;;;;;;5054187;28;20029;-74
2022/12/15 11:03:25;;;;;;;37.13;21.65;;;2.80;90.10;;;;;;5053017;28;20365;-73
2022/12/15 11:05:55;;;;;;;35.60;20.85;;;2.90;90.10;;;;;;5053992;28;20048;-74
2022/12/15 11:08:22;;;;;;;35.33;19.63;;;3.00;90.10;;;;;;5087115;28;20032;-76
2022/12/15 11:13:39;;;;;;;35.42;21.58;;;3.10;90.10;;;;;;5053911;28;20032;-78
2022/12/15 11:16:14;;;;;;;32.13;20.30;;;3.10;90.10;;;;;;5086540;28;20055;-79
2022/12/15 11:18:52;;;;;;;35.17;20.33;;;3.10;90.20;;;;;;5053984;28;20041;-78
2022/12/15 11:21:20;;;;;;;34.60;21.23;;;3.20;90.40;;;;;;5052832;28;20032;-79
2022/12/15 11:24:12;;;;;;;32.03;20.50;;;3.10;90.60;;;;;;5052399;28;20033;-79
2022/12/15 11:27:02;;;;;;;34.08;20.48;;;3.10;90.80;;;;;;5086074;28;20039;-79
2022/12/15 11:29:52;;;;;;;31.60;19.45;;;3.20;90.80;;;;;;5051916;28;20521;-79
2022/12/15 11:32:32;;;;;;;36.60;20.25;;;3.20;90.80;;;;;;5052762;28;20470;-79
2022/12/15 11:34:58;;;;;;;33.47;21.00;;;3.30;90.80;;;;;;5053962;28;20036;-79
2022/12/15 11:37:43;;;;;;;33.88;20.13;;;3.40;90.90;;;;;;5052347;28;20481;-79
2022/12/15 11:40:39;;;;;;;39.30;22.30;;;3.40;91.00;;;;;;5053246;28;20024;-79
2022/12/15 11:43:53;;;;;;;28.95;18.25;;;3.40;91.00;;;;;;5086030;28;20115;-79
2022/12/15 11:46:53;;;;;;;29.33;19.13;;;3.40;91.10;;;;;;4992276;28;20037;-79
2022/12/15 11:49:30;;;;;;;32.40;19.20;;;3.50;91.10;;;;;;5085821;28;20025;-79
2022/12/15 11:52:16;;;;;;;32.55;19.88;;;3.50;91.20;;;;;;5053473;28;20528;-79
2022/12/15 11:55:02;;;;;;;30.73;19.10;;;3.60;91.20;;;;;;5085625;28;20040;-78
2022/12/15 11:58:02;;;;;;;33.67;19.50;;;3.70;91.10;;;;;;5051909;28;20040;-74
2022/12/15 12:00:31;;;;;;;31.48;19.02;;;3.60;91.10;;;;;;5053139;28;20040;-80
2022/12/15 12:03:12;;;;;;;29.52;18.83;;;3.60;91.20;;;;;;5053477;28;20021;-78
2022/12/15 12:06:11;;;;;;;33.13;18.52;;;3.70;91.30;;;;;;5052072;28;20123;-79
2022/12/15 12:08:55;;;;;;;30.40;18.58;;;3.80;91.40;;;;;;5053250;28;20021;-81
2022/12/15 12:11:27;;;;;;;34.13;20.52;;;3.80;91.30;;;;;;5085214;28;20025;-79
2022/12/15 12:14:05;;;;;;;35.00;20.07;;;3.90;91.50;;;;;;5051986;28;20068;-80
2022/12/15 12:16:50;;;;;;;32.72;20.20;;;3.90;91.40;;;;;;5053092;28;20261;-81
2022/12/15 12:19:22;;;;;;;33.83;19.50;;;4.00;91.40;;;;;;5053393;28;20056;-80
2022/12/15 12:21:50;;;;;;;32.65;19.42;;;4.00;91.40;;;;;;5053167;28;20036;-79
2022/12/15 12:24:31;;;;;;;29.58;19.52;;;4.00;91.40;;;;;;5085217;28;20401;-80
2022/12/15 12:27:09;;;;;;;30.63;19.33;;;3.90;91.40;;;;;;5052892;28;20034;-81
2022/12/15 12:30:01;;;;;;;32.28;19.10;;;3.90;91.50;;;;;;5052916;28;20028;-80
2022/12/15 12:32:56;;;;;;;31.90;20.23;;;3.90;91.80;;;;;;5044729;28;20045;-78
2022/12/15 12:35:44;;;;;;;35.00;20.08;;;4.00;91.60;;;;;;5052160;28;20037;-80
2022/12/15 12:38:11;;;;;;;31.17;19.20;;;4.00;91.60;;;;;;5085804;28;20036;-80
2022/12/15 12:40:39;;;;;;;31.77;20.08;;;4.20;91.50;;;;;;5085268;28;20433;-81
2022/12/15 12:43:07;;;;;;;32.00;20.67;;;4.20;91.30;;;;;;5052833;28;20027;-80
2022/12/15 12:45:51;;;;;;;36.33;21.17;;;4.40;91.20;;;;;;5052924;28;20057;-80
2022/12/15 12:49:03;;;;;;;31.65;19.85;;;4.40;91.00;;;;;;5054143;28;20116;-79
2022/12/15 12:51:57;;;;;;;33.55;20.42;;;4.40;90.90;;;;;;5055754;28;20527;-78
2022/12/15 12:54:35;;;;;;;37.55;20.88;;;4.50;90.90;;;;;;5055637;28;20083;-78
2022/12/15 12:57:21;;;;;;;35.50;20.48;;;4.50;90.80;;;;;;5057476;28;20163;-79
2022/12/15 12:59:57;;;;;;;29.85;18.38;;;4.50;91.00;;;;;;5055983;28;20032;-73
2022/12/15 13:02:25;;;;;;;32.50;19.27;;;4.70;91.00;;;;;;5056160;28;20036;-75
2022/12/15 13:05:03;;;;;;;36.03;20.17;;;4.90;90.90;;;;;;5056543;28;20027;-78
2022/12/15 13:07:39;;;;;;;28.83;19.23;;;5.00;90.40;;;;;;5055783;28;20032;-77
2022/12/15 13:10:07;;;;;;;32.33;19.92;;;5.10;90.10;;;;;;5057390;28;20368;-78
2022/12/15 13:12:53;;;;;;;35.33;19.33;;;5.20;90.00;;;;;;5067974;28;20044;-78
2022/12/15 13:15:28;;;;;;;33.25;19.08;;;5.20;89.80;;;;;;5074487;28;20472;-78
2022/12/15 13:18:08;;;;;;;33.42;20.35;;;5.20;89.00;;;;;;5072753;28;20033;-75
2022/12/15 13:20:36;;;;;;;31.65;18.88;;;5.10;89.00;;;;;;5079292;28;20024;-78
2022/12/15 13:23:22;;;;;;;32.60;20.70;;;5.00;89.00;;;;;;5076808;28;20117;-74
2022/12/15 13:25:56;;;;;;;31.98;20.05;;;5.00;88.90;;;;;;5040997;28;20465;-75
2022/12/15 13:28:43;;;;;;;34.22;19.67;;;5.00;89.10;;;;;;5055373;28;20108;-75
2022/12/15 13:31:18;;;;;;;34.67;20.73;;;4.90;89.10;;;;;;5054519;28;20028;-76
2022/12/15 13:33:51;;;;;;;35.28;21.20;;;4.90;89.10;;;;;;5055848;28;20029;-75
2022/12/15 13:36:38;;;;;;;29.92;18.85;;;4.70;89.40;;;;;;5055786;28;20023;-75
2022/12/15 13:39:06;;;;;;;30.25;19.45;;;4.70;89.90;;;;;;5054523;28;20029;-75
2022/12/15 13:41:33;;;;;;;31.48;20.45;;;4.80;90.10;;;;;;5055338;28;20032;-75
2022/12/15 13:43:59;;;;;;;33.20;19.67;;;4.80;90.10;;;;;;5069180;28;20028;-75
2022/12/15 13:46:30;;;;;;;32.20;21.00;;;4.80;90.10;;;;;;5075438;28;20025;-76
2022/12/15 13:49:12;;;;;;;38.17;22.77;;;4.80;90.20;;;;;;5074735;28;20052;-76
2022/12/15 13:51:45;;;;;;;31.25;20.15;;;4.80;90.20;;;;;;5071943;28;20139;-76
2022/12/15 13:54:30;;;;;;;36.35;22.00;;;4.80;89.90;;;;;;5074780;28;20025;-77
2022/12/15 13:57:13;;;;;;;33.17;21.13;;;4.80;89.50;;;;;;5071791;28;20107;-77
2022/12/15 13:59:39;;;;;;;33.58;21.05;;;4.70;89.80;;;;;;5074288;28;20021;-76
2022/12/15 14:02:25;;;;;;;35.78;21.15;;;4.80;89.80;;;;;;5076443;28;20039;-78
2022/12/15 14:05:12;;;;;;;33.75;21.33;;;4.90;89.80;;;;;;5075803;28;20025;-76
2022/12/15 14:07:41;;;;;;;35.65;21.73;;;4.90;89.60;;;;;;5074056;28;20035;-74
2022/12/15 14:10:21;;;;;;;38.25;21.73;;;4.90;89.60;;;;;;5074902;28;20123;-73
2022/12/15 14:12:48;;;;;;;31.33;19.38;;;4.90;89.50;;;;;;5074641;28;20044;-74
2022/12/15 14:15:16;;;;;;;31.88;21.25;;;5.00;90.10;;;;;;5074730;28;20032;-74
2022/12/15 14:17:50;;;;;;;32.22;19.80;;;5.10;89.80;;;;;;5074860;28;20025;-73
2022/12/15 14:20:27;;;;;;;33.25;20.13;;;5.10;89.80;;;;;;5073847;28;20036;-74
2022/12/15 14:22:53;;;;;;;37.28;21.20;;;5.20;89.40;;;;;;5074091;28;20043;-74
2022/12/15 14:25:26;;;;;;;31.92;20.80;;;5.20;89.40;;;;;;5056193;28;20405;-74
2022/12/15 14:27:52;;;;;;;32.03;21.40;;;5.20;89.00;;;;;;5074021;28;20021;-75
2022/12/15 14:30:25;;;;;;;37.75;20.83;;;5.20;88.70;;;;;;5072573;28;20048;-75
2022/12/15 14:33:11;;;;;;;32.67;20.35;;;5.20;88.90;;;;;;5074135;28;20066;-75
2022/12/15 14:35:48;;;;;;;32.78;19.95;;;5.30;89.10;;;;;;5074392;28;20090;-75
2022/12/15 14:38:25;;;;;;;37.55;20.75;;;5.40;88.90;;;;;;5074276;28;20071;-74
2022/12/15 14:40:54;;;;;;;31.10;19.48;;;5.40;88.70;;;;;;5073338;28;20039;-75
2022/12/15 14:43:28;;;;;;;34.22;20.50;;;5.40;88.50;;;;;;5073242;28;20032;-75
2022/12/15 14:46:05;;;;;;;33.47;19.85;;;5.40;88.40;;;;;;5074179;28;20136;-75
2022/12/15 14:48:37;;;;;;;34.35;21.83;;;5.40;88.30;;;;;;5074481;28;20074;-74
2022/12/15 14:51:04;;;;;;;31.70;19.75;;;5.40;88.10;;;;;;5074304;28;20064;-76
2022/12/15 14:53:36;;;;;;;33.08;20.00;;;5.40;87.90;;;;;;5056418;28;20480;-74
2022/12/15 14:56:14;;;;;;;33.00;20.20;;;5.40;88.00;;;;;;5074470;28;20031;-74
2022/12/15 14:58:41;;;;;;;34.05;20.35;;;5.30;87.90;;;;;;5072441;28;20035;-74
2022/12/15 15:01:27;;;;;;;31.58;19.38;;;5.40;88.20;;;;;;5073944;28;20024;-74
2022/12/15 15:04:05;;;;;;;30.90;19.75;;;5.30;88.20;;;;;;5072602;28;20028;-73
2022/12/15 15:06:37;;;;;;;33.75;20.77;;;5.40;88.50;;;;;;5073988;28;20526;-75
2022/12/15 15:09:30;;;;;;;30.30;19.83;;;5.40;88.40;;;;;;5074225;28;20050;-74
2022/12/15 15:12:00;;;;;;;33.70;21.98;;;5.30;88.30;;;;;;5042498;28;20051;-74
2022/12/15 15:14:30;;;;;;;31.23;19.73;;;5.30;88.40;;;;;;5073506;28;20029;-74
2022/12/15 15:17:05;;;;;;;27.98;18.33;;;5.30;88.40;;;;;;5072834;28;20479;-75
2022/12/15 15:19:35;;;;;;;35.80;20.35;;;5.30;88.50;;;;;;5075145;28;20044;-75
2022/12/15 15:22:01;;;;;;;28.42;18.50;;;5.20;88.80;;;;;;5075117;28;20035;-75
2022/12/15 15:24:36;;;;;;;33.97;20.90;;;5.30;88.90;;;;;;5073240;28;20388;-73